Time;durP1;ratioP1;P1;durP2;ratioP2;P2;SDS_P1;SDS_P2;PMS_P1;PMS_P2;Temp;Humidity;BMP_temperature;BMP_pressure;BME280_temperature;BME280_humidity;BME280_pressure;Samples;Min_cycle;Max_cycle;Signal;HPM_P1;HPM_P2
2021/09/14 00:00:35;;;;;;;8.90;8.00;;;19.70;99.90;;;;;;6227169;28;20229;-64
2021/09/14 00:03:38;;;;;;;7.70;7.10;;;19.60;99.90;;;;;;6227045;28;20307;-64
2021/09/14 00:06:41;;;;;;;7.80;7.10;;;19.60;99.90;;;;;;6226888;28;20307;-64
2021/09/14 00:09:44;;;;;;;7.60;7.00;;;19.50;99.90;;;;;;6227087;28;20233;-64
2021/09/14 00:12:49;;;;;;;8.10;7.40;;;19.50;99.90;;;;;;6226839;28;20229;-64
2021/09/14 00:15:52;;;;;;;6.80;6.30;;;19.50;99.90;;;;;;6222779;28;20233;-63
2021/09/14 00:18:55;;;;;;;8.10;7.40;;;19.50;99.90;;;;;;6226591;28;20259;-63
2021/09/14 00:21:58;;;;;;;7.80;7.10;;;19.40;99.90;;;;;;6226651;28;20684;-61
2021/09/14 00:25:02;;;;;;;8.50;7.80;;;19.50;99.90;;;;;;6226630;28;20225;-61
2021/09/14 00:28:06;;;;;;;8.03;7.33;;;19.40;99.90;;;;;;6226758;28;20232;-61
2021/09/14 00:31:09;;;;;;;7.23;6.63;;;19.40;99.90;;;;;;6226897;28;20275;-62
2021/09/14 00:34:12;;;;;;;8.23;7.53;;;19.30;99.90;;;;;;6226287;28;20322;-61
2021/09/14 00:37:16;;;;;;;8.00;7.37;;;19.30;99.90;;;;;;6226547;28;20236;-61
2021/09/14 00:40:19;;;;;;;7.33;6.80;;;19.30;99.90;;;;;;6226764;28;20248;-63
2021/09/14 00:43:25;;;;;;;8.00;7.27;;;19.20;99.90;;;;;;6226528;28;20233;-63
2021/09/14 00:46:29;;;;;;;7.50;6.90;;;19.20;99.90;;;;;;6226139;28;20708;-63
2021/09/14 00:49:32;;;;;;;8.03;7.33;;;19.20;99.90;;;;;;6226435;28;20235;-63
2021/09/14 00:52:36;;;;;;;7.60;7.00;;;19.10;99.90;;;;;;6226114;28;20563;-63
2021/09/14 00:55:39;;;;;;;8.93;8.20;;;19.10;99.90;;;;;;6225344;28;20259;-61
2021/09/14 00:58:45;;;;;;;7.43;6.83;;;19.00;99.90;;;;;;6226165;28;20553;-63
2021/09/14 01:01:48;;;;;;;8.70;7.90;;;19.00;99.90;;;;;;6225915;28;20251;-61
2021/09/14 01:04:51;;;;;;;8.47;7.77;;;19.00;99.90;;;;;;6216003;28;20705;-61
2021/09/14 01:07:55;;;;;;;7.90;7.30;;;19.00;99.90;;;;;;6209389;28;20238;-61
2021/09/14 01:10:59;;;;;;;7.70;7.10;;;19.00;99.90;;;;;;6202790;28;20321;-61
2021/09/14 01:14:05;;;;;;;7.70;7.10;;;19.00;99.90;;;;;;6209899;28;20236;-61
2021/09/14 01:17:09;;;;;;;7.80;7.10;;;19.00;99.90;;;;;;6213495;28;20225;-61
2021/09/14 01:20:13;;;;;;;8.37;7.60;;;19.00;99.90;;;;;;6211830;28;20239;-61
2021/09/14 01:23:17;;;;;;;8.90;7.40;;;18.90;99.90;;;;;;6200549;28;20689;-62
2021/09/14 01:26:20;;;;;;;8.27;7.40;;;18.90;99.90;;;;;;6220002;28;20245;-61
2021/09/14 01:32:46;;;;;;;8.67;7.90;;;18.90;99.90;;;;;;6218458;28;20290;-63
2021/09/14 01:35:49;;;;;;;10.40;9.40;;;18.80;99.90;;;;;;6227080;28;20239;-62
2021/09/14 01:38:53;;;;;;;10.00;9.00;;;18.80;99.90;;;;;;6226363;28;20590;-62
2021/09/14 01:41:56;;;;;;;10.23;9.20;;;18.70;99.90;;;;;;6226059;28;20233;-62
2021/09/14 01:45:00;;;;;;;8.80;8.07;;;18.80;99.90;;;;;;6225541;28;20637;-62
2021/09/14 01:48:03;;;;;;;9.77;8.87;;;18.70;99.90;;;;;;6226207;28;20216;-62
2021/09/14 01:51:06;;;;;;;9.90;6.90;;;18.70;99.90;;;;;;6226331;28;20224;-62
2021/09/14 01:54:11;;;;;;;8.00;7.30;;;18.60;99.90;;;;;;6226649;28;20201;-62
2021/09/14 01:57:14;;;;;;;8.90;8.17;;;18.60;99.90;;;;;;6228434;28;20621;-62
2021/09/14 02:00:19;;;;;;;9.40;8.60;;;18.60;99.90;;;;;;6225819;28;20247;-62
2021/09/14 02:03:28;;;;;;;9.00;8.20;;;18.60;99.90;;;;;;6225480;28;20236;-62
2021/09/14 02:06:55;;;;;;;8.43;7.67;;;18.60;99.90;;;;;;6228932;28;20295;-62
2021/09/14 02:33:53;;;;;;;9.03;8.23;;;18.40;99.90;;;;;;6220500;28;20476;-63
2021/09/14 02:43:48;;;;;;;10.57;9.37;;;18.40;99.90;;;;;;6229431;28;20472;-63
2021/09/14 03:00:15;;;;;;;9.57;8.57;;;18.20;99.90;;;;;;6217128;28;20229;-63
2021/09/14 03:03:18;;;;;;;9.30;8.50;;;18.20;99.90;;;;;;6228743;28;20463;-64
2021/09/14 03:06:21;;;;;;;8.53;7.83;;;18.20;99.90;;;;;;6228555;28;20241;-63
2021/09/14 03:09:25;;;;;;;8.83;8.00;;;18.20;99.90;;;;;;6228489;28;20463;-63
2021/09/14 03:12:28;;;;;;;9.80;8.97;;;18.20;99.90;;;;;;6228270;28;20237;-63
2021/09/14 03:15:32;;;;;;;9.30;8.50;;;18.20;99.90;;;;;;6228623;28;20483;-63
2021/09/14 03:18:36;;;;;;;8.60;7.90;;;18.10;99.90;;;;;;6227879;28;20460;-63
2021/09/14 03:21:39;;;;;;;7.90;7.30;;;18.20;99.90;;;;;;6228277;28;20467;-63
2021/09/14 03:24:42;;;;;;;10.17;8.73;;;18.20;99.90;;;;;;6228406;28;20468;-63
2021/09/14 03:27:45;;;;;;;9.60;8.77;;;18.10;99.90;;;;;;6205120;28;20925;-63
2021/09/14 03:30:50;;;;;;;9.97;8.87;;;18.10;99.90;;;;;;6210584;28;20489;-63
2021/09/14 03:33:55;;;;;;;8.67;7.87;;;18.10;99.90;;;;;;6212469;28;20469;-63
2021/09/14 03:36:58;;;;;;;8.47;7.67;;;18.00;99.90;;;;;;6212814;28;20460;-62
2021/09/14 03:40:01;;;;;;;8.30;7.50;;;18.00;99.90;;;;;;6211460;28;20523;-62
2021/09/14 03:43:04;;;;;;;8.37;7.57;;;17.90;99.90;;;;;;6208561;28;20476;-62
2021/09/14 03:46:09;;;;;;;7.87;7.27;;;17.90;99.90;;;;;;6203317;28;20977;-63
2021/09/14 03:49:12;;;;;;;8.50;7.80;;;17.90;99.90;;;;;;6203734;28;20473;-63
2021/09/14 03:52:15;;;;;;;9.60;8.70;;;17.90;99.90;;;;;;6203279;28;20245;-63
2021/09/14 03:55:18;;;;;;;9.33;8.53;;;17.80;99.90;;;;;;6202872;28;20477;-63
2021/09/14 03:58:21;;;;;;;9.03;8.23;;;17.80;99.90;;;;;;6202813;28;20483;-63
2021/09/14 04:01:25;;;;;;;10.47;9.47;;;17.80;99.90;;;;;;6203445;28;20554;-63
2021/09/14 04:04:36;;;;;;;10.07;9.17;;;17.80;99.90;;;;;;6202517;28;20556;-63
2021/09/14 04:07:51;;;;;;;9.30;8.50;;;17.80;99.90;;;;;;6202958;28;20473;-63
2021/09/14 04:10:56;;;;;;;9.43;8.63;;;17.80;99.90;;;;;;6202484;28;20480;-63
2021/09/14 04:14:00;;;;;;;11.07;9.70;;;17.70;99.90;;;;;;6202970;28;20469;-63
2021/09/14 04:17:05;;;;;;;11.50;9.43;;;17.80;99.90;;;;;;6202633;28;20487;-63
2021/09/14 04:20:09;;;;;;;10.07;8.97;;;17.80;99.90;;;;;;6202312;28;20479;-63
2021/09/14 04:23:12;;;;;;;9.10;8.40;;;17.70;99.90;;;;;;6202192;28;20480;-64
2021/09/14 04:26:15;;;;;;;9.87;9.07;;;17.70;99.90;;;;;;6203226;28;20476;-63
2021/09/14 04:29:18;;;;;;;9.80;8.90;;;17.80;99.90;;;;;;6202522;28;20486;-63
2021/09/14 04:32:23;;;;;;;8.80;8.10;;;17.80;99.90;;;;;;6198014;28;20488;-63
2021/09/14 04:35:26;;;;;;;10.10;9.13;;;17.80;99.90;;;;;;6203541;28;20492;-63
2021/09/14 04:38:29;;;;;;;9.23;8.43;;;17.70;99.90;;;;;;6203495;28;20484;-63
2021/09/14 04:41:32;;;;;;;9.70;8.87;;;17.80;99.90;;;;;;6203150;28;20801;-63
2021/09/14 04:44:35;;;;;;;9.80;8.80;;;17.80;99.90;;;;;;6202841;28;20480;-64
2021/09/14 04:47:40;;;;;;;10.03;9.03;;;17.70;99.90;;;;;;6203556;28;20976;-64
2021/09/14 04:50:43;;;;;;;8.93;8.13;;;17.70;99.90;;;;;;6202597;28;20476;-64
2021/09/14 04:53:46;;;;;;;10.70;9.67;;;17.70;99.90;;;;;;6201906;28;20519;-64
2021/09/14 04:56:49;;;;;;;9.57;8.40;;;17.80;99.90;;;;;;6202297;28;20477;-64
2021/09/14 04:59:52;;;;;;;9.30;8.50;;;17.70;99.90;;;;;;6199885;28;20488;-63
2021/09/14 05:02:57;;;;;;;8.93;8.23;;;17.80;99.90;;;;;;6202674;28;20477;-63
2021/09/14 05:06:01;;;;;;;9.63;8.83;;;17.80;99.90;;;;;;6202593;28;20453;-64
2021/09/14 05:09:05;;;;;;;9.40;8.43;;;17.70;99.90;;;;;;6201650;28;20451;-64
2021/09/14 05:12:08;;;;;;;8.97;8.20;;;17.70;99.90;;;;;;6201640;28;20485;-64
2021/09/14 05:15:12;;;;;;;9.33;8.63;;;17.70;99.90;;;;;;6201466;28;20452;-63
2021/09/14 05:18:17;;;;;;;8.77;8.03;;;17.70;99.90;;;;;;6201945;28;20488;-62
2021/09/14 05:21:20;;;;;;;9.40;8.53;;;17.70;99.90;;;;;;6202208;28;20847;-64
2021/09/14 05:24:23;;;;;;;10.20;9.20;;;17.70;99.90;;;;;;6202120;28;20461;-63
2021/09/14 05:27:27;;;;;;;9.47;8.57;;;17.60;99.90;;;;;;6202207;28;20531;-63
2021/09/14 05:30:30;;;;;;;9.80;8.90;;;17.60;99.90;;;;;;6201750;28;20468;-63
2021/09/14 05:33:35;;;;;;;10.67;9.60;;;17.60;99.90;;;;;;6201744;28;20836;-63
2021/09/14 05:36:38;;;;;;;10.07;9.17;;;17.70;99.90;;;;;;6201379;28;20984;-64
2021/09/14 05:39:41;;;;;;;12.23;9.67;;;17.70;99.90;;;;;;6201141;28;20483;-62
2021/09/14 05:42:45;;;;;;;10.03;9.00;;;17.70;99.90;;;;;;6205298;28;21010;-62
2021/09/14 05:45:48;;;;;;;10.50;9.57;;;17.80;99.90;;;;;;6205425;28;20487;-63
2021/09/14 05:48:53;;;;;;;10.87;9.87;;;17.90;99.90;;;;;;6206059;28;20476;-64
2021/09/14 05:51:58;;;;;;;10.60;9.70;;;18.00;99.90;;;;;;6206090;28;20480;-63
2021/09/14 05:55:01;;;;;;;12.77;11.53;;;18.10;99.90;;;;;;6206005;28;20476;-62
2021/09/14 05:58:05;;;;;;;12.30;11.23;;;18.10;99.90;;;;;;6207117;28;20815;-66
2021/09/14 06:01:09;;;;;;;11.00;9.90;;;18.20;99.90;;;;;;6207166;28;20234;-64
2021/09/14 06:04:13;;;;;;;11.00;9.97;;;18.30;99.90;;;;;;6206036;28;20492;-65
2021/09/14 06:07:17;;;;;;;11.07;10.00;;;18.30;99.90;;;;;;6206417;28;20237;-64
2021/09/14 06:10:20;;;;;;;10.90;9.87;;;18.40;99.90;;;;;;6207284;28;20489;-63
2021/09/14 06:13:23;;;;;;;10.20;9.30;;;18.50;99.90;;;;;;6206594;28;20483;-64
2021/09/14 06:16:26;;;;;;;10.87;9.77;;;18.70;99.90;;;;;;6205721;28;20242;-65
2021/09/14 06:19:31;;;;;;;11.13;10.10;;;18.90;99.90;;;;;;6205229;28;20723;-65
2021/09/14 06:22:34;;;;;;;11.00;9.90;;;19.10;99.90;;;;;;6205321;28;20229;-64
2021/09/14 06:25:37;;;;;;;11.30;10.13;;;19.80;99.90;;;;;;6205340;28;20248;-64
2021/09/14 06:28:40;;;;;;;10.87;9.77;;;20.90;99.90;;;;;;6204873;28;20229;-66
2021/09/14 06:31:44;;;;;;;11.37;10.30;;;22.20;99.80;;;;;;6204905;28;20253;-64
2021/09/14 06:34:48;;;;;;;12.20;11.10;;;23.30;97.60;;;;;;6205090;28;20248;-64
2021/09/14 06:37:51;;;;;;;11.63;10.50;;;24.60;95.40;;;;;;6204475;28;20241;-65
2021/09/14 06:40:54;;;;;;;15.50;11.23;;;25.60;92.40;;;;;;6195301;28;20601;-65
2021/09/14 06:43:58;;;;;;;12.50;11.27;;;26.60;90.00;;;;;;6204937;28;20536;-65
2021/09/14 06:47:02;;;;;;;12.60;10.77;;;27.30;84.40;;;;;;6204901;28;20230;-65
2021/09/14 06:50:08;;;;;;;15.23;10.90;;;28.00;79.70;;;;;;6204679;28;20716;-64
2021/09/14 06:53:13;;;;;;;10.40;9.50;;;28.90;75.00;;;;;;6203599;28;20233;-65
2021/09/14 06:56:16;;;;;;;12.60;11.30;;;29.80;69.50;;;;;;6204952;28;20247;-65
2021/09/14 06:59:19;;;;;;;12.13;10.70;;;30.80;64.60;;;;;;6204265;28;20232;-65
2021/09/14 07:02:22;;;;;;;11.33;9.43;;;31.70;60.10;;;;;;6203762;28;20232;-65
2021/09/14 07:05:27;;;;;;;12.73;10.02;;;32.60;56.30;;;;;;6204134;28;20243;-65
2021/09/14 07:08:30;;;;;;;12.85;10.85;;;32.80;54.40;;;;;;6204966;28;20229;-65
2021/09/14 07:11:33;;;;;;;12.68;11.45;;;33.10;53.00;;;;;;6204080;28;20251;-65
2021/09/14 07:14:38;;;;;;;12.43;10.68;;;33.70;51.80;;;;;;6204317;28;20251;-66
2021/09/14 07:17:43;;;;;;;12.02;10.93;;;34.80;49.20;;;;;;6202517;28;20224;-65
2021/09/14 07:20:48;;;;;;;10.43;9.23;;;35.80;46.60;;;;;;6202592;28;20235;-64
2021/09/14 07:23:51;;;;;;;10.82;9.93;;;36.70;44.30;;;;;;6203482;28;20229;-65
2021/09/14 07:26:54;;;;;;;11.75;10.75;;;37.50;42.50;;;;;;6203429;28;20232;-65
2021/09/14 07:29:57;;;;;;;12.80;11.15;;;38.30;40.50;;;;;;6203379;28;20241;-65
2021/09/14 07:33:00;;;;;;;10.52;9.63;;;39.00;39.30;;;;;;6204214;28;20220;-65
2021/09/14 07:36:08;;;;;;;10.75;9.85;;;39.70;38.00;;;;;;6203936;28;20652;-66
2021/09/14 07:39:11;;;;;;;9.90;9.20;;;40.40;36.60;;;;;;6204377;28;20220;-66
2021/09/14 07:42:14;;;;;;;11.55;10.10;;;40.80;35.50;;;;;;6198816;28;20244;-66
2021/09/14 07:45:17;;;;;;;10.48;9.20;;;41.10;34.40;;;;;;6204217;28;20216;-66
2021/09/14 07:48:20;;;;;;;9.95;8.98;;;41.30;33.80;;;;;;6203416;28;20229;-66
2021/09/14 07:51:25;;;;;;;9.30;8.60;;;41.60;33.40;;;;;;6203709;28;20676;-65
2021/09/14 07:54:28;;;;;;;10.48;9.65;;;42.40;32.50;;;;;;6203630;28;20217;-65
2021/09/14 07:57:32;;;;;;;9.98;8.18;;;43.20;31.50;;;;;;6203801;28;20243;-65
2021/09/14 08:00:35;;;;;;;7.88;7.38;;;42.60;31.60;;;;;;6202762;28;20676;-65
2021/09/14 08:03:38;;;;;;;8.05;7.40;;;42.90;31.60;;;;;;6203682;28;20361;-66
2021/09/14 08:06:43;;;;;;;8.15;7.55;;;43.80;30.50;;;;;;6203479;28;20228;-66
2021/09/14 08:09:47;;;;;;;7.90;7.10;;;44.50;29.50;;;;;;6203026;28;20675;-66
2021/09/14 08:12:51;;;;;;;9.15;8.27;;;45.20;29.00;;;;;;6202646;28;20237;-66
2021/09/14 08:15:54;;;;;;;8.85;8.25;;;45.70;28.60;;;;;;6202617;28;20225;-66
2021/09/14 08:18:57;;;;;;;7.63;7.10;;;46.50;27.90;;;;;;6202826;28;20234;-67
2021/09/14 08:22:01;;;;;;;8.32;7.72;;;46.80;27.40;;;;;;6202600;28;20237;-66
2021/09/14 08:25:05;;;;;;;8.52;7.82;;;47.50;27.10;;;;;;6202633;28;20275;-67
2021/09/14 08:28:09;;;;;;;7.65;6.97;;;47.80;26.50;;;;;;6202116;28;20232;-67
2021/09/14 08:31:12;;;;;;;8.93;8.32;;;48.10;26.30;;;;;;6202189;28;20225;-66
2021/09/14 08:34:15;;;;;;;8.57;7.78;;;47.90;25.80;;;;;;6211931;28;20221;-66
2021/09/14 08:37:19;;;;;;;8.95;8.13;;;47.40;26.30;;;;;;6212266;28;20232;-67
2021/09/14 08:40:23;;;;;;;8.98;8.38;;;47.40;26.20;;;;;;6210262;28;20680;-66
2021/09/14 08:43:26;;;;;;;7.80;7.20;;;46.90;26.40;;;;;;6213704;28;20230;-67
2021/09/14 08:46:29;;;;;;;8.15;7.65;;;46.70;26.50;;;;;;6224214;28;20258;-67
2021/09/14 08:49:32;;;;;;;7.97;7.22;;;46.60;26.70;;;;;;6221890;28;20228;-68
2021/09/14 08:52:37;;;;;;;9.35;8.55;;;45.80;26.80;;;;;;6226707;28;20240;-65
2021/09/14 08:55:42;;;;;;;9.65;8.90;;;45.00;27.30;;;;;;6225929;28;20705;-64
2021/09/14 08:58:56;;;;;;;8.32;7.60;;;44.00;27.90;;;;;;6226088;28;20574;-65
2021/09/14 09:02:00;;;;;;;9.27;8.32;;;44.30;28.10;;;;;;6225875;28;20240;-64
2021/09/14 09:05:05;;;;;;;10.95;9.25;;;44.70;27.90;;;;;;6225951;28;20234;-65
2021/09/14 09:08:19;;;;;;;9.15;8.30;;;44.20;28.00;;;;;;6225697;28;20392;-65
2021/09/14 09:11:23;;;;;;;9.20;8.45;;;43.10;29.10;;;;;;6217742;28;20239;-65
2021/09/14 09:14:34;;;;;;;9.90;9.02;;;43.00;29.40;;;;;;6215927;28;20225;-65
2021/09/14 09:17:38;;;;;;;9.05;8.32;;;44.10;28.70;;;;;;6215413;28;20632;-66
2021/09/14 09:20:43;;;;;;;8.55;7.95;;;45.30;27.60;;;;;;6225774;28;20248;-66
2021/09/14 09:23:57;;;;;;;9.15;8.43;;;46.20;27.10;;;;;;6225718;28;20230;-65
2021/09/14 09:27:00;;;;;;;8.10;7.45;;;46.90;26.50;;;;;;6225843;28;20228;-65
2021/09/14 09:30:07;;;;;;;7.65;7.15;;;47.50;26.00;;;;;;6225639;28;20209;-65
2021/09/14 09:33:11;;;;;;;8.02;7.40;;;47.20;25.70;;;;;;6226196;28;20211;-65
2021/09/14 09:36:30;;;;;;;8.07;7.38;;;46.50;26.00;;;;;;6225389;28;20231;-64
2021/09/14 09:39:42;;;;;;;7.95;7.40;;;46.50;25.80;;;;;;6225587;28;20239;-64
2021/09/14 09:42:49;;;;;;;8.02;7.22;;;47.70;25.70;;;;;;6225158;28;20669;-64
2021/09/14 09:45:52;;;;;;;7.72;7.00;;;48.80;24.80;;;;;;6216606;28;20253;-64
2021/09/14 09:48:55;;;;;;;9.10;8.50;;;49.60;24.00;;;;;;6225545;28;20235;-65
2021/09/14 09:51:58;;;;;;;9.70;8.88;;;49.90;23.90;;;;;;6221591;28;20236;-65
2021/09/14 09:55:03;;;;;;;8.18;7.68;;;50.40;23.80;;;;;;6225541;28;20238;-65
2021/09/14 09:58:07;;;;;;;8.75;8.05;;;50.30;23.30;;;;;;6225826;28;20238;-65
2021/09/14 10:01:15;;;;;;;7.72;7.20;;;50.30;23.40;;;;;;6225285;28;20243;-65
2021/09/14 10:04:22;;;;;;;9.15;8.25;;;50.60;23.30;;;;;;6225527;28;20720;-65
2021/09/14 10:07:27;;;;;;;7.63;7.03;;;50.60;23.10;;;;;;6225789;28;20243;-65
2021/09/14 10:10:38;;;;;;;8.00;7.40;;;49.90;23.30;;;;;;6225451;28;20298;-65
2021/09/14 10:13:41;;;;;;;7.80;7.32;;;49.30;23.50;;;;;;6225491;28;20263;-65
2021/09/14 10:16:46;;;;;;;8.25;7.65;;;48.10;23.90;;;;;;6225799;28;20240;-65
2021/09/14 10:19:49;;;;;;;9.45;8.75;;;46.30;25.10;;;;;;6225301;28;20236;-65
2021/09/14 10:23:04;;;;;;;8.57;7.85;;;45.20;26.00;;;;;;6221635;28;20231;-65
2021/09/14 10:26:12;;;;;;;9.50;8.65;;;43.90;27.40;;;;;;6211888;28;20220;-65
2021/09/14 10:29:18;;;;;;;8.55;7.85;;;42.30;28.70;;;;;;6217818;28;20232;-64
2021/09/14 10:32:21;;;;;;;8.57;8.07;;;40.60;30.20;;;;;;6216053;28;20237;-64
2021/09/14 10:35:30;;;;;;;8.43;7.72;;;39.90;31.70;;;;;;6214143;28;20225;-64
2021/09/14 10:38:39;;;;;;;9.18;8.50;;;39.20;32.80;;;;;;6214745;28;20221;-65
2021/09/14 10:41:45;;;;;;;10.18;9.38;;;38.50;33.70;;;;;;6214604;28;20258;-64
2021/09/14 10:44:50;;;;;;;10.18;9.38;;;38.00;34.40;;;;;;6216585;28;20220;-65
2021/09/14 10:47:53;;;;;;;9.43;8.73;;;37.30;34.70;;;;;;6218881;28;20229;-65
2021/09/14 10:51:10;;;;;;;9.70;9.00;;;36.50;35.80;;;;;;6224847;28;20237;-64
2021/09/14 10:54:20;;;;;;;10.15;9.35;;;35.60;37.50;;;;;;6195132;28;20213;-67
2021/09/14 10:57:34;;;;;;;9.30;8.68;;;35.30;38.70;;;;;;6204666;28;20229;-66
2021/09/14 11:00:37;;;;;;;9.73;8.93;;;35.10;39.10;;;;;;6216320;28;20229;-67
2021/09/14 11:03:40;;;;;;;10.00;9.30;;;34.60;39.50;;;;;;6224744;28;20242;-66
2021/09/14 11:06:48;;;;;;;8.77;8.18;;;34.30;40.50;;;;;;6216277;28;20220;-66
2021/09/14 11:09:55;;;;;;;10.65;9.77;;;34.30;40.60;;;;;;6212102;28;20236;-66
2021/09/14 11:13:00;;;;;;;9.70;8.80;;;34.20;41.00;;;;;;6210015;28;20256;-66
2021/09/14 11:16:06;;;;;;;9.95;9.27;;;33.80;42.00;;;;;;6211517;28;20239;-64
2021/09/14 11:19:09;;;;;;;12.52;11.57;;;33.40;41.60;;;;;;6212942;28;20235;-65
2021/09/14 11:22:12;;;;;;;10.43;9.73;;;33.20;41.70;;;;;;6219452;28;20229;-63
2021/09/14 11:25:17;;;;;;;10.10;9.30;;;33.10;41.70;;;;;;6214077;28;20232;-66
2021/09/14 11:28:23;;;;;;;9.90;9.20;;;33.20;42.00;;;;;;6206786;28;20248;-63
2021/09/14 11:31:27;;;;;;;9.75;9.07;;;33.30;41.70;;;;;;6213789;28;20249;-65
2021/09/14 11:34:31;;;;;;;9.63;9.02;;;33.00;41.90;;;;;;6211582;28;20236;-63
2021/09/14 11:37:34;;;;;;;9.77;8.98;;;33.00;42.00;;;;;;6214445;28;20248;-65
2021/09/14 11:40:47;;;;;;;9.75;9.05;;;33.20;41.50;;;;;;6214372;28;20233;-65
2021/09/14 11:43:52;;;;;;;9.70;8.95;;;33.10;41.60;;;;;;6211700;28;20224;-67
2021/09/14 11:46:55;;;;;;;9.68;9.00;;;32.90;41.90;;;;;;6220787;28;20228;-63
2021/09/14 11:49:58;;;;;;;10.50;9.70;;;32.70;42.10;;;;;;6216588;28;20232;-63
2021/09/14 11:53:06;;;;;;;10.48;9.65;;;32.80;42.40;;;;;;6210705;28;20236;-61
2021/09/14 11:56:14;;;;;;;10.45;9.75;;;32.50;42.50;;;;;;6202766;28;20565;-63
2021/09/14 11:59:19;;;;;;;10.85;9.90;;;32.30;43.10;;;;;;6198656;28;20236;-66
2021/09/14 12:02:23;;;;;;;10.45;9.75;;;31.90;43.40;;;;;;6203155;28;20233;-67
2021/09/14 12:05:26;;;;;;;9.52;8.60;;;31.80;43.40;;;;;;6203225;28;20233;-65
2021/09/14 12:08:31;;;;;;;9.90;9.00;;;31.90;43.00;;;;;;6203213;28;20279;-65
2021/09/14 12:11:36;;;;;;;9.93;9.05;;;31.80;43.60;;;;;;6206099;28;20245;-67
2021/09/14 12:14:43;;;;;;;10.15;9.45;;;31.60;44.00;;;;;;6207943;28;20259;-66
2021/09/14 12:17:47;;;;;;;9.93;9.07;;;31.50;43.90;;;;;;6210956;28;20236;-64
2021/09/14 12:20:50;;;;;;;10.73;9.73;;;31.60;44.00;;;;;;6224375;28;20247;-63
2021/09/14 12:23:53;;;;;;;10.10;9.07;;;31.90;43.40;;;;;;6225812;28;20224;-65
2021/09/14 12:26:59;;;;;;;9.25;8.55;;;32.10;43.70;;;;;;6227732;28;20232;-62
2021/09/14 12:30:04;;;;;;;9.95;9.15;;;32.30;42.80;;;;;;6235853;28;20560;-62
2021/09/14 12:33:07;;;;;;;11.15;10.07;;;32.30;42.30;;;;;;6243115;28;20208;-61
2021/09/14 12:36:11;;;;;;;9.20;8.43;;;32.20;42.40;;;;;;6233573;28;20209;-61
2021/09/14 12:39:14;;;;;;;11.23;10.13;;;32.30;42.00;;;;;;6227238;28;20231;-63
2021/09/14 12:42:17;;;;;;;10.80;9.85;;;31.90;41.80;;;;;;6227595;28;20314;-60
2021/09/14 12:45:22;;;;;;;9.70;8.85;;;31.80;43.30;;;;;;6227100;28;20243;-62
2021/09/14 12:48:25;;;;;;;10.77;9.30;;;31.80;43.40;;;;;;6227385;28;20224;-62
2021/09/14 12:51:28;;;;;;;10.02;9.23;;;31.80;42.90;;;;;;6225665;28;20232;-60
2021/09/14 12:54:32;;;;;;;10.27;9.35;;;31.70;43.10;;;;;;6226460;28;20231;-61
2021/09/14 12:57:53;;;;;;;9.90;9.10;;;31.60;43.90;;;;;;6226334;28;20238;-62
2021/09/14 13:00:57;;;;;;;10.85;9.80;;;31.60;44.00;;;;;;6225785;28;20235;-65
2021/09/14 13:04:01;;;;;;;9.70;8.88;;;31.40;43.90;;;;;;6216946;28;20232;-65
2021/09/14 13:07:04;;;;;;;9.80;9.00;;;31.20;44.50;;;;;;6226127;28;20232;-62
2021/09/14 13:10:09;;;;;;;11.15;10.18;;;31.40;44.00;;;;;;6225820;28;20220;-65
2021/09/14 13:16:35;;;;;;;10.23;9.32;;;31.50;43.60;;;;;;6225489;28;20719;-66
2021/09/14 13:19:38;;;;;;;9.88;9.10;;;31.30;43.60;;;;;;6225094;28;20604;-65
2021/09/14 13:22:41;;;;;;;9.45;8.13;;;31.30;43.70;;;;;;6224479;28;20232;-65
2021/09/14 13:25:44;;;;;;;11.02;9.32;;;31.30;43.80;;;;;;6223987;28;20231;-65
2021/09/14 13:28:47;;;;;;;9.25;8.63;;;31.30;43.80;;;;;;6225560;28;20228;-63
2021/09/14 13:31:52;;;;;;;10.07;9.23;;;31.30;44.00;;;;;;6225129;28;20668;-65
2021/09/14 13:34:55;;;;;;;9.85;9.15;;;31.10;44.90;;;;;;6224824;28;20231;-64
2021/09/14 13:37:58;;;;;;;9.05;8.43;;;31.10;45.30;;;;;;6225588;28;20232;-65
2021/09/14 13:41:04;;;;;;;9.95;9.05;;;30.60;46.00;;;;;;6225216;28;20235;-63
2021/09/14 13:47:29;;;;;;;10.20;9.27;;;31.00;45.60;;;;;;6224912;28;20228;-63
2021/09/14 13:50:32;;;;;;;10.35;9.45;;;31.10;45.60;;;;;;6224998;28;20232;-64
2021/09/14 13:53:36;;;;;;;10.40;9.07;;;30.90;46.30;;;;;;6224953;28;20243;-64
2021/09/14 13:56:39;;;;;;;10.88;10.18;;;30.40;46.80;;;;;;6225069;28;20243;-65
2021/09/14 13:59:42;;;;;;;11.13;10.23;;;30.30;47.60;;;;;;6224975;28;20239;-62
2021/09/14 14:02:48;;;;;;;10.55;9.85;;;30.30;47.70;;;;;;6228317;28;20243;-64
2021/09/14 14:05:51;;;;;;;11.27;10.48;;;30.40;47.80;;;;;;6230622;28;20236;-64
2021/09/14 14:08:55;;;;;;;12.32;11.32;;;30.30;48.00;;;;;;6225815;28;20236;-64
2021/09/14 14:11:58;;;;;;;10.98;10.07;;;30.20;48.40;;;;;;6230949;28;20243;-64
2021/09/14 14:15:02;;;;;;;12.13;11.10;;;30.10;48.60;;;;;;6230556;28;20608;-63
2021/09/14 14:18:06;;;;;;;10.00;9.30;;;29.90;49.30;;;;;;6230469;28;20240;-64
2021/09/14 14:21:10;;;;;;;10.53;9.73;;;29.60;49.80;;;;;;6212356;28;20229;-64
2021/09/14 14:24:13;;;;;;;11.70;10.70;;;29.50;50.00;;;;;;6207966;28;20540;-64
2021/09/14 14:27:16;;;;;;;11.47;10.57;;;29.20;50.50;;;;;;6208707;28;20205;-65
2021/09/14 14:30:19;;;;;;;10.87;10.07;;;29.30;50.80;;;;;;6208186;28;20677;-62
2021/09/14 14:33:24;;;;;;;11.80;10.87;;;29.20;50.90;;;;;;6208295;28;20237;-63
2021/09/14 14:36:27;;;;;;;11.20;10.30;;;29.30;51.80;;;;;;6212204;28;20293;-64
2021/09/14 14:39:33;;;;;;;11.87;10.90;;;29.30;51.20;;;;;;6215624;28;20298;-65
2021/09/14 14:42:36;;;;;;;12.63;11.60;;;29.20;51.50;;;;;;6215275;28;20256;-64
2021/09/14 14:45:40;;;;;;;12.40;11.13;;;28.90;52.00;;;;;;6234957;28;20235;-64
2021/09/14 14:48:45;;;;;;;12.23;11.20;;;28.50;52.70;;;;;;6238121;28;20238;-64
2021/09/14 14:51:48;;;;;;;13.33;12.17;;;28.40;53.00;;;;;;6235404;28;20232;-64
2021/09/14 14:54:52;;;;;;;11.53;10.63;;;28.10;53.20;;;;;;6233528;28;20672;-64
2021/09/14 14:57:55;;;;;;;12.00;11.00;;;28.00;53.90;;;;;;6234794;28;20668;-64
2021/09/14 15:01:00;;;;;;;12.10;11.10;;;28.10;54.00;;;;;;6234033;28;20228;-64
2021/09/14 15:04:05;;;;;;;11.90;10.93;;;28.10;54.00;;;;;;6232819;28;20248;-64
2021/09/14 15:07:09;;;;;;;12.17;11.17;;;28.00;54.40;;;;;;6232202;28;20688;-64
2021/09/14 15:10:12;;;;;;;11.90;11.00;;;27.90;54.50;;;;;;6230915;28;20847;-64
2021/09/14 15:13:15;;;;;;;11.83;10.77;;;27.90;55.10;;;;;;6214883;28;20695;-65
2021/09/14 15:16:18;;;;;;;12.57;11.50;;;27.80;55.40;;;;;;6225285;28;20573;-64
2021/09/14 15:19:23;;;;;;;13.10;11.80;;;27.80;55.30;;;;;;6219654;28;20672;-65
2021/09/14 15:22:26;;;;;;;12.40;11.40;;;27.80;55.30;;;;;;6213722;28;20304;-65
2021/09/14 15:25:30;;;;;;;13.13;12.00;;;27.90;55.80;;;;;;6213584;28;20236;-65
2021/09/14 15:28:33;;;;;;;13.10;12.00;;;27.90;56.70;;;;;;6214850;28;20220;-65
2021/09/14 15:31:37;;;;;;;14.03;11.93;;;27.80;56.60;;;;;;6213265;28;20306;-64
2021/09/14 15:34:42;;;;;;;12.90;12.00;;;27.80;56.50;;;;;;6211583;28;20220;-64
2021/09/14 15:37:46;;;;;;;12.97;11.70;;;27.80;57.00;;;;;;6213346;28;20236;-65
2021/09/14 15:40:50;;;;;;;12.47;11.53;;;27.80;57.10;;;;;;6209289;28;20236;-64
2021/09/14 15:43:53;;;;;;;11.97;11.10;;;27.80;57.20;;;;;;6206513;28;20220;-64
2021/09/14 15:46:57;;;;;;;12.00;11.10;;;27.90;57.40;;;;;;6213041;28;20225;-65
2021/09/14 15:50:01;;;;;;;12.87;11.80;;;27.90;57.30;;;;;;6213683;28;20221;-64
2021/09/14 15:53:05;;;;;;;13.17;11.97;;;27.80;57.80;;;;;;6212238;28;20239;-64
2021/09/14 15:56:11;;;;;;;13.67;11.80;;;27.80;58.20;;;;;;6208069;28;20235;-64
2021/09/14 15:59:14;;;;;;;13.20;12.17;;;27.80;58.20;;;;;;6202858;28;20705;-64
2021/09/14 16:02:17;;;;;;;13.20;12.00;;;27.80;59.70;;;;;;6202537;28;20233;-63
2021/09/14 16:05:22;;;;;;;11.97;11.00;;;27.80;59.70;;;;;;6202910;28;20244;-64
2021/09/14 16:08:27;;;;;;;12.00;11.07;;;27.70;59.70;;;;;;6202273;28;20233;-63
2021/09/14 16:11:30;;;;;;;12.83;11.70;;;27.70;60.00;;;;;;6202295;28;20237;-63
2021/09/14 16:14:33;;;;;;;13.53;12.30;;;27.70;60.20;;;;;;6202418;28;20229;-63
2021/09/14 16:17:37;;;;;;;11.90;11.00;;;27.70;60.50;;;;;;6198579;28;20232;-64
2021/09/14 16:20:41;;;;;;;12.90;11.27;;;27.70;60.90;;;;;;6226633;28;20236;-64
2021/09/14 16:23:44;;;;;;;13.13;12.00;;;27.70;61.30;;;;;;6226798;28;20232;-63
2021/09/14 16:26:47;;;;;;;12.40;11.20;;;27.60;61.60;;;;;;6226652;28;20239;-64
2021/09/14 16:29:51;;;;;;;12.97;11.87;;;27.50;61.80;;;;;;6227099;28;20238;-64
2021/09/14 16:32:54;;;;;;;12.60;11.50;;;27.40;62.20;;;;;;6227271;28;20228;-64
2021/09/14 16:36:02;;;;;;;11.77;10.83;;;27.20;62.60;;;;;;6226919;28;20236;-64
2021/09/14 16:39:05;;;;;;;12.93;11.83;;;27.10;63.10;;;;;;6226677;28;20543;-64
2021/09/14 16:42:08;;;;;;;13.77;12.67;;;27.00;63.60;;;;;;6226470;28;20338;-63
2021/09/14 16:45:12;;;;;;;12.97;12.07;;;27.00;64.10;;;;;;6219882;28;20200;-63